Time;durP1;ratioP1;P1;durP2;ratioP2;P2;SDS_P1;SDS_P2;PMS_P1;PMS_P2;Temp;Humidity;BMP_temperature;BMP_pressure;BME280_temperature;BME280_humidity;BME280_pressure;Samples;Min_cycle;Max_cycle;Signal;HPM_P1;HPM_P2
2022/03/22 00:00:06;;;;;;;16.90;8.50;;;;;;;-2.18;61.09;97552.06;1667225;86;21054;-69
2022/03/22 00:02:37;;;;;;;15.20;8.37;;;;;;;-2.15;61.03;97547.48;1667270;86;21043;-69
2022/03/22 00:05:05;;;;;;;16.67;8.00;;;;;;;-2.06;61.00;97548.05;1667310;86;21046;-69
2022/03/22 00:07:32;;;;;;;14.23;8.10;;;;;;;-2.01;60.50;97548.83;1667635;86;21042;-69
2022/03/22 00:09:59;;;;;;;16.90;9.40;;;;;;;-2.03;61.99;97553.00;1667270;86;21505;-69
2022/03/22 00:12:26;;;;;;;14.70;9.13;;;;;;;-2.29;61.59;97550.52;1667611;86;21089;-69
2022/03/22 00:14:52;;;;;;;14.03;7.33;;;;;;;-2.43;62.43;97552.23;1667437;86;21030;-69
2022/03/22 00:17:20;;;;;;;14.63;8.70;;;;;;;-2.40;62.01;97554.59;1667461;86;21018;-70
2022/03/22 00:19:48;;;;;;;20.63;8.60;;;;;;;-2.54;62.94;97551.97;1667350;86;21070;-67
2022/03/22 00:22:15;;;;;;;16.67;8.47;;;;;;;-2.49;62.69;97554.03;1667321;86;21065;-67
2022/03/22 00:24:42;;;;;;;15.63;9.10;;;;;;;-2.45;62.84;97558.58;1667543;86;21014;-67
2022/03/22 00:27:08;;;;;;;16.17;7.00;;;;;;;-2.41;62.65;97555.80;1667435;86;21484;-67
2022/03/22 00:29:35;;;;;;;11.90;6.60;;;;;;;-2.41;63.63;97560.98;1667300;86;21027;-67
2022/03/22 00:32:03;;;;;;;12.07;7.00;;;;;;;-2.62;64.32;97556.24;1667158;86;21090;-67
2022/03/22 00:34:29;;;;;;;11.70;5.63;;;;;;;-2.78;64.13;97557.34;1667281;85;21548;-67
2022/03/22 00:36:58;;;;;;;14.47;7.90;;;;;;;-2.85;65.25;97564.19;1666995;86;21106;-67
2022/03/22 00:39:25;;;;;;;12.63;7.70;;;;;;;-2.84;64.35;97559.54;1667250;85;21576;-67
2022/03/22 00:41:53;;;;;;;13.20;7.60;;;;;;;-2.78;64.16;97559.03;1667005;86;21504;-67
2022/03/22 00:44:22;;;;;;;16.73;8.07;;;;;;;-2.74;63.96;97554.58;1665086;85;21070;-67
2022/03/22 00:46:50;;;;;;;14.67;8.13;;;;;;;-2.71;63.59;97553.47;1667316;85;21007;-67
2022/03/22 00:49:17;;;;;;;13.30;7.90;;;;;;;-2.65;63.21;97556.42;1667454;86;21002;-67
2022/03/22 00:51:44;;;;;;;16.70;8.70;;;;;;;-2.61;63.44;97552.84;1667284;86;21101;-67
2022/03/22 00:54:11;;;;;;;21.77;10.67;;;;;;;-2.58;64.19;97553.84;1667193;86;21525;-67
2022/03/22 00:56:37;;;;;;;16.30;9.40;;;;;;;-2.60;64.14;97556.32;1644214;86;21082;-67
2022/03/22 01:01:49;;;;;;;15.17;8.10;;;;;;;-2.53;63.06;97549.86;1667132;85;21043;-70
2022/03/22 01:04:16;;;;;;;16.47;8.33;;;;;;;-2.54;63.26;97553.26;1667481;85;21042;-70
2022/03/22 01:06:42;;;;;;;17.97;10.47;;;;;;;-2.58;63.23;97557.72;1667398;86;21530;-70
2022/03/22 01:09:10;;;;;;;14.07;8.03;;;;;;;-2.59;63.02;97554.25;1644150;87;21050;-70
2022/03/22 01:11:39;;;;;;;12.83;7.47;;;;;;;-2.67;63.64;97554.14;1667155;86;21050;-70
2022/03/22 01:14:06;;;;;;;15.10;8.57;;;;;;;-2.71;63.52;97552.17;1667312;85;21104;-70
2022/03/22 01:16:33;;;;;;;14.50;8.47;;;;;;;-2.70;63.82;97545.80;1667457;85;21505;-69
2022/03/22 01:19:00;;;;;;;19.13;10.60;;;;;;;-2.69;63.43;97542.44;1667710;86;21066;-69
2022/03/22 01:21:26;;;;;;;15.60;9.50;;;;;;;-2.63;63.76;97541.92;1644028;87;21015;-69
2022/03/22 01:23:53;;;;;;;12.67;7.87;;;;;;;-2.65;64.86;97545.69;1667378;86;21545;-69
2022/03/22 01:26:19;;;;;;;14.33;7.47;;;;;;;-2.66;64.15;97542.62;1664951;85;21050;-69
2022/03/22 01:28:47;;;;;;;14.67;8.20;;;;;;;-2.62;63.93;97535.97;1667022;85;21090;-69
2022/03/22 01:31:14;;;;;;;15.97;8.43;;;;;;;-2.76;64.00;97532.91;1667744;86;21082;-69
2022/03/22 01:33:43;;;;;;;13.90;8.03;;;;;;;-2.73;64.34;97535.67;1667533;86;21477;-69
2022/03/22 01:36:10;;;;;;;14.40;8.53;;;;;;;-2.64;64.77;97533.69;1667534;86;21030;-69
2022/03/22 01:38:37;;;;;;;11.60;7.40;;;;;;;-2.69;64.72;97541.55;1667524;86;21030;-69
2022/03/22 01:41:04;;;;;;;11.00;7.13;;;;;;;-2.73;63.91;97540.44;1667595;86;21030;-69
2022/03/22 01:43:30;;;;;;;12.23;7.37;;;;;;;-2.76;64.52;97544.13;1667516;86;21002;-70
2022/03/22 01:45:58;;;;;;;15.87;8.23;;;;;;;-2.78;64.26;97537.96;1667717;86;21038;-70
2022/03/22 01:48:24;;;;;;;17.47;8.83;;;;;;;-2.80;65.79;97543.42;1667706;86;21082;-70
2022/03/22 01:50:51;;;;;;;13.80;7.70;;;;;;;-2.89;65.58;97536.39;1667155;86;21062;-70
2022/03/22 01:53:18;;;;;;;14.53;7.03;;;;;;;-2.89;65.35;97542.45;1667618;86;21034;-70
2022/03/22 01:55:45;;;;;;;14.00;8.47;;;;;;;-2.95;65.86;97544.66;1667365;86;21552;-70
2022/03/22 01:58:13;;;;;;;13.63;7.47;;;;;;;-3.06;66.64;97541.75;1667443;86;21026;-70
2022/03/22 02:00:40;;;;;;;13.47;7.93;;;;;;;-3.05;65.54;97534.13;1648653;86;21030;-69
2022/03/22 02:05:55;;;;;;;14.07;8.40;;;;;;;-2.96;65.22;97531.63;1667541;86;21039;-69
2022/03/22 02:08:31;;;;;;;16.43;9.00;;;;;;;-2.91;64.93;97536.69;1667615;86;21042;-69
2022/03/22 02:11:00;;;;;;;15.27;8.53;;;;;;;-2.84;64.78;97537.58;1667226;86;21504;-69
2022/03/22 02:13:31;;;;;;;12.57;7.80;;;;;;;-2.79;64.57;97528.44;1667531;86;21086;-69
2022/03/22 02:16:01;;;;;;;10.70;6.93;;;;;;;-2.80;65.03;97531.80;1667602;86;21026;-69
2022/03/22 02:18:28;;;;;;;30.97;7.40;;;;;;;-2.92;64.84;97534.52;1667513;86;21027;-69
2022/03/22 02:20:56;;;;;;;15.73;8.30;;;;;;;-3.01;65.00;97536.48;1667677;86;21026;-69
2022/03/22 02:23:59;;;;;;;13.27;6.83;;;;;;;-3.03;65.17;97535.48;1667552;86;21061;-69
2022/03/22 02:26:25;;;;;;;14.20;7.40;;;;;;;-3.11;66.92;97532.41;1666187;86;21035;-69
2022/03/22 02:28:55;;;;;;;14.43;7.70;;;;;;;-3.17;65.92;97530.73;1667367;86;21039;-69
2022/03/22 02:31:26;;;;;;;14.40;7.93;;;;;;;-3.08;66.06;97531.72;1667211;86;21086;-69
2022/03/22 02:33:54;;;;;;;14.67;7.77;;;;;;;-3.02;66.03;97532.50;1667167;85;21050;-68
2022/03/22 02:36:21;;;;;;;13.27;7.17;;;;;;;-3.10;65.76;97532.01;1667395;86;21018;-68
2022/03/22 02:38:48;;;;;;;13.60;7.90;;;;;;;-3.07;66.11;97539.98;1667126;85;21077;-68
2022/03/22 02:41:19;;;;;;;13.93;7.20;;;;;;;-3.12;65.86;97532.33;1667228;85;20994;-68
2022/03/22 02:43:48;;;;;;;12.43;7.53;;;;;;;-3.07;65.72;97534.41;1666277;86;21061;-68
2022/03/22 02:46:16;;;;;;;19.50;9.57;;;;;;;-2.97;65.51;97535.91;1667118;85;21092;-68
2022/03/22 02:48:44;;;;;;;20.60;10.70;;;;;;;-3.00;66.41;97536.97;1667058;85;21121;-68
2022/03/22 02:51:12;;;;;;;13.43;7.63;;;;;;;-2.96;66.12;97539.37;1644177;87;21010;-68
2022/03/22 02:53:39;;;;;;;12.07;6.90;;;;;;;-2.93;65.58;97536.98;1667138;86;21046;-68
2022/03/22 02:56:05;;;;;;;13.53;7.60;;;;;;;-2.96;65.32;97535.50;1667160;85;21074;-68
2022/03/22 02:58:33;;;;;;;16.63;7.73;;;;;;;-3.00;65.25;97548.59;1667037;85;21073;-68
2022/03/22 03:01:02;;;;;;;11.53;6.43;;;;;;;-2.94;65.23;97547.72;1667149;85;21054;-68
2022/03/22 03:03:28;;;;;;;13.57;7.47;;;;;;;-3.01;66.34;97547.22;1667428;85;21074;-68
2022/03/22 03:05:55;;;;;;;12.00;7.13;;;;;;;-3.09;65.75;97547.61;1667283;85;21126;-68
2022/03/22 03:08:26;;;;;;;14.53;7.63;;;;;;;-3.10;65.65;97545.84;1667205;86;21042;-68
2022/03/22 03:10:50;;;;;;;9.80;5.33;;;;;;;-3.06;65.89;97546.92;1667310;86;21078;-68
2022/03/22 03:13:17;;;;;;;11.93;7.10;;;;;;;-3.12;65.59;97547.42;1667067;86;21014;-68
2022/03/22 03:15:44;;;;;;;11.27;6.47;;;;;;;-3.24;65.36;97550.89;1667338;86;21500;-68
2022/03/22 03:18:13;;;;;;;13.50;7.30;;;;;;;-3.32;65.94;97554.26;1667295;85;21034;-68
2022/03/22 03:20:40;;;;;;;13.30;7.10;;;;;;;-3.31;66.14;97549.17;1667293;86;21030;-68
2022/03/22 03:23:06;;;;;;;11.17;7.37;;;;;;;-3.24;65.96;97550.89;1667413;86;21066;-68
2022/03/22 03:25:35;;;;;;;13.90;7.57;;;;;;;-3.18;65.94;97552.16;1667345;85;21058;-68
2022/03/22 03:28:02;;;;;;;11.93;7.63;;;;;;;-3.18;65.98;97548.70;1666921;85;21054;-68
2022/03/22 03:30:29;;;;;;;16.13;7.67;;;;;;;-3.14;65.90;97547.71;1667036;86;21070;-68
2022/03/22 03:32:56;;;;;;;12.77;8.07;;;;;;;-3.06;65.66;97553.38;1667176;86;21038;-68
2022/03/22 03:35:23;;;;;;;12.03;7.60;;;;;;;-3.18;65.81;97555.15;1667233;86;21062;-68
2022/03/22 03:37:49;;;;;;;16.80;8.00;;;;;;;-3.23;66.68;97557.83;1667387;86;21033;-67
2022/03/22 03:40:16;;;;;;;14.77;8.60;;;;;;;-3.25;66.37;97560.33;1667250;85;21034;-67
2022/03/22 03:42:43;;;;;;;18.73;7.47;;;;;;;-3.19;66.32;97555.55;1667182;86;21003;-67
2022/03/22 03:47:58;;;;;;;11.50;7.03;;;;;;;-3.20;66.22;97550.27;1667127;86;21006;-68
2022/03/22 03:50:26;;;;;;;13.17;6.73;;;;;;;-3.20;66.95;97559.31;1667114;86;21073;-68
2022/03/22 03:52:52;;;;;;;15.40;8.23;;;;;;;-3.19;66.62;97550.80;1667200;86;21039;-68
2022/03/22 03:55:19;;;;;;;13.40;7.30;;;;;;;-3.27;66.32;97552.47;1667431;85;21014;-68
2022/03/22 03:57:46;;;;;;;12.37;7.10;;;;;;;-3.22;66.80;97550.60;1666924;85;21043;-68
2022/03/22 04:00:15;;;;;;;13.80;8.03;;;;;;;-3.23;67.14;97552.66;1666964;86;21847;-68
2022/03/22 04:02:42;;;;;;;15.80;8.10;;;;;;;-3.20;66.90;97551.56;1667151;85;21536;-68
2022/03/22 04:05:10;;;;;;;13.80;6.40;;;;;;;-3.17;66.32;97548.81;1667336;85;20986;-68
2022/03/22 04:07:36;;;;;;;30.03;13.50;;;;;;;-3.11;66.04;97549.59;1667301;85;21042;-68
2022/03/22 04:10:04;;;;;;;15.23;7.37;;;;;;;-3.15;65.80;97542.44;1667024;86;20999;-68
2022/03/22 04:12:31;;;;;;;20.30;9.50;;;;;;;-3.26;67.01;97546.91;1666961;85;21026;-68
2022/03/22 04:14:57;;;;;;;16.27;9.03;;;;;;;-3.38;67.28;97547.37;1667382;86;21026;-68
2022/03/22 04:17:24;;;;;;;11.23;6.77;;;;;;;-3.52;67.76;97553.82;1667291;86;21066;-68
2022/03/22 04:19:51;;;;;;;14.73;7.40;;;;;;;-3.49;67.62;97550.14;1667633;86;21135;-67
2022/03/22 04:22:18;;;;;;;17.17;7.60;;;;;;;-3.41;67.26;97553.64;1667429;86;21019;-68
2022/03/22 04:24:45;;;;;;;15.87;8.00;;;;;;;-3.35;67.59;97547.20;1667250;86;21536;-67
2022/03/22 04:32:43;;;;;;;12.20;6.80;;;;;;;-3.35;66.68;97544.99;1667713;86;21042;-68
2022/03/22 04:35:13;;;;;;;19.67;9.47;;;;;;;-3.31;66.46;97551.76;1667566;86;21116;-66
2022/03/22 04:37:41;;;;;;;22.97;8.53;;;;;;;-3.31;67.46;97550.47;1667529;86;21066;-67
2022/03/22 04:40:10;;;;;;;15.03;8.13;;;;;;;-3.34;68.39;97549.38;1667419;86;21050;-67
2022/03/22 04:42:37;;;;;;;12.53;6.53;;;;;;;-3.32;67.42;97552.97;1667891;86;21022;-67
2022/03/22 04:45:06;;;;;;;21.33;10.57;;;;;;;-3.32;67.03;97556.84;1667366;86;21007;-67
2022/03/22 04:47:35;;;;;;;16.73;8.77;;;;;;;-3.28;67.76;97551.98;1667695;86;21104;-67
2022/03/22 04:50:04;;;;;;;17.53;9.57;;;;;;;-3.29;67.13;97548.00;1667636;86;21520;-67
2022/03/22 04:58:02;;;;;;;13.50;6.77;;;;;;;-3.29;68.17;97545.42;1667771;86;21010;-67
2022/03/22 05:00:29;;;;;;;13.33;8.60;;;;;;;-3.21;68.17;97545.92;1667447;86;21585;-67
2022/03/22 05:02:57;;;;;;;11.40;6.67;;;;;;;-3.09;68.78;97539.86;1667558;86;21046;-67
2022/03/22 05:08:08;;;;;;;10.77;5.43;;;;;;;-2.94;67.96;97542.95;1667706;86;21042;-67
2022/03/22 05:10:36;;;;;;;11.27;6.93;;;;;;;-3.00;69.42;97539.95;1667786;86;21078;-67
2022/03/22 05:13:04;;;;;;;11.20;6.60;;;;;;;-2.95;68.82;97539.48;1667609;86;21022;-67
2022/03/22 05:15:34;;;;;;;11.20;6.77;;;;;;;-2.76;69.04;97535.48;1667295;86;21549;-67
2022/03/22 05:18:01;;;;;;;12.10;7.13;;;;;;;-2.66;69.00;97534.87;1667621;86;21022;-67
2022/03/22 05:20:28;;;;;;;11.50;6.70;;;;;;;-2.64;68.62;97528.52;1667513;86;21520;-67
2022/03/22 05:22:55;;;;;;;14.67;7.10;;;;;;;-2.56;69.52;97535.46;1667750;86;21488;-67
2022/03/22 05:25:21;;;;;;;11.70;6.60;;;;;;;-2.41;68.53;97530.84;1667695;86;20994;-67
2022/03/22 05:27:48;;;;;;;12.30;7.60;;;;;;;-2.28;68.26;97523.85;1667323;86;20995;-67
2022/03/22 05:30:15;;;;;;;23.57;14.47;;;;;;;-2.21;68.59;97532.48;1667418;86;21078;-67
2022/03/22 05:32:42;;;;;;;15.87;9.13;;;;;;;-2.05;68.65;97533.91;1679860;85;21027;-67
2022/03/22 05:35:09;;;;;;;21.03;11.67;;;;;;;-1.90;68.86;97530.06;1667688;86;21034;-67
2022/03/22 05:37:36;;;;;;;27.73;14.07;;;;;;;-1.89;68.14;97530.58;1679491;84;21111;-67
2022/03/22 05:40:04;;;;;;;15.73;8.80;;;;;;;-1.81;68.46;97532.33;1667623;86;21006;-67
2022/03/22 05:42:36;;;;;;;28.63;16.73;;;;;;;-1.75;68.31;97527.09;1667417;85;21066;-67
2022/03/22 05:45:03;;;;;;;33.83;17.90;;;;;;;-1.69;68.71;97525.27;1679801;85;21047;-66
2022/03/22 05:47:30;;;;;;;29.00;16.73;;;;;;;-1.52;68.00;97527.16;1667674;86;20979;-66
2022/03/22 05:49:56;;;;;;;35.80;22.70;;;;;;;-1.27;67.33;97522.55;1679764;84;21075;-66
2022/03/22 05:52:23;;;;;;;22.67;10.90;;;;;;;-1.17;66.39;97519.67;1666440;86;21339;-70
2022/03/22 05:54:50;;;;;;;27.17;13.83;;;;;;;-1.11;66.49;97525.19;1678880;84;21058;-67
2022/03/22 05:57:16;;;;;;;29.13;13.63;;;;;;;-1.00;66.65;97524.53;1670370;85;21088;-71
2022/03/22 05:59:43;;;;;;;38.97;15.80;;;;;;;-0.82;66.39;97520.80;1694409;85;21049;-66
2022/03/22 06:02:10;;;;;;;26.67;14.13;;;;;;;-0.73;66.15;97520.91;1694878;84;21005;-69
2022/03/22 06:04:36;;;;;;;28.97;16.17;;;;;;;-0.55;66.37;97519.73;1694652;85;21108;-67
2022/03/22 06:07:04;;;;;;;24.17;13.40;;;;;;;-0.36;65.31;97516.84;1693648;85;21144;-70
2022/03/22 06:09:31;;;;;;;26.67;14.37;;;;;;;-0.15;64.17;97509.31;1693923;85;21136;-68
2022/03/22 06:11:57;;;;;;;23.97;12.67;;;;;;;-0.09;63.35;97509.66;1694287;84;21108;-67
2022/03/22 06:14:24;;;;;;;25.73;14.50;;;;;;;-0.03;63.21;97513.45;1694691;84;21010;-68
2022/03/22 06:16:50;;;;;;;28.50;15.60;;;;;;;0.11;63.26;97515.91;1694700;84;21054;-72
2022/03/22 06:19:17;;;;;;;28.47;17.13;;;;;;;0.31;62.92;97515.23;1695312;84;21037;-68
2022/03/22 06:21:44;;;;;;;27.90;15.07;;;;;;;0.43;62.92;97514.58;1694845;85;21064;-68
2022/03/22 06:24:10;;;;;;;31.57;16.27;;;;;;;0.60;62.75;97507.63;1694464;84;21120;-73
2022/03/22 06:26:37;;;;;;;26.93;16.10;;;;;;;0.81;62.18;97507.83;1694165;85;21083;-70
2022/03/22 06:29:04;;;;;;;29.83;16.97;;;;;;;0.96;62.07;97505.48;1694323;84;21076;-71
2022/03/22 06:31:34;;;;;;;23.30;13.97;;;;;;;1.13;61.29;97508.91;1709066;84;21051;-72
2022/03/22 06:34:02;;;;;;;24.57;14.53;;;;;;;1.25;61.75;97511.70;1720727;83;21057;-69
2022/03/22 06:36:29;;;;;;;24.80;14.33;;;;;;;1.37;61.20;97498.81;1719126;83;21070;-71
2022/03/22 06:38:56;;;;;;;23.43;13.87;;;;;;;1.53;60.63;97496.52;1720010;83;21074;-70
2022/03/22 06:41:22;;;;;;;28.57;15.13;;;;;;;1.70;60.71;97508.61;1719557;83;21014;-67
2022/03/22 06:43:49;;;;;;;28.23;14.80;;;;;;;1.89;60.52;97502.52;1719539;83;21057;-72
2022/03/22 06:46:15;;;;;;;26.83;13.60;;;;;;;2.02;60.23;97499.67;1720055;83;21046;-71
2022/03/22 06:48:42;;;;;;;22.93;13.40;;;;;;;2.20;60.01;97497.41;1720141;83;21014;-68
2022/03/22 06:51:09;;;;;;;24.23;13.13;;;;;;;2.36;59.59;97503.76;1719559;83;21121;-71
2022/03/22 06:53:35;;;;;;;25.53;13.77;;;;;;;2.52;59.32;97504.92;1719372;83;21033;-71
2022/03/22 06:56:04;;;;;;;23.53;13.87;;;;;;;2.68;58.69;97496.45;1742976;82;21071;-72
2022/03/22 06:58:31;;;;;;;23.27;12.57;;;;;;;2.84;58.63;97491.46;1720068;83;21101;-71
2022/03/22 07:00:58;;;;;;;20.40;12.37;;;;;;;2.98;58.40;97493.82;1719879;83;20982;-72
2022/03/22 07:03:24;;;;;;;22.47;14.50;;;;;;;3.14;57.98;97493.14;1719718;83;21591;-70
2022/03/22 07:05:52;;;;;;;20.47;12.13;;;;;;;3.31;57.84;97483.39;1720606;83;21509;-72
2022/03/22 07:08:19;;;;;;;21.40;11.40;;;;;;;3.46;57.30;97489.22;1720481;83;21023;-72
2022/03/22 07:11:47;;;;;;;25.53;13.17;;;;;;;3.62;57.14;97491.58;1720699;83;21030;-70
2022/03/22 07:13:14;;;;;;;24.60;15.27;;;;;;;3.80;56.70;97486.17;1723937;82;21019;-68
2022/03/22 07:15:40;;;;;;;17.57;10.30;;;;;;;3.97;56.47;97481.59;1720468;83;21485;-72
2022/03/22 07:18:13;;;;;;;20.73;14.00;;;;;;;4.15;56.21;97489.22;1719924;83;21129;-81
2022/03/22 07:20:40;;;;;;;20.15;12.00;;;;;;;4.31;56.00;97489.38;1710359;83;21525;-71
2022/03/22 07:23:07;;;;;;;20.10;12.10;;;;;;;4.50;55.86;97481.77;1710118;83;21478;-68
2022/03/22 07:25:33;;;;;;;20.53;10.73;;;;;;;4.68;55.62;97488.05;1709078;84;21503;-74
2022/03/22 07:28:01;;;;;;;14.63;8.83;;;;;;;4.85;55.08;97491.25;1709511;83;21047;-70
2022/03/22 07:30:28;;;;;;;18.07;10.23;;;;;;;5.03;54.26;97489.24;1712877;83;21575;-70
2022/03/22 07:32:55;;;;;;;17.43;9.70;;;;;;;5.21;53.17;97480.68;1665590;85;21632;-71
2022/03/22 07:35:23;;;;;;;14.03;8.60;;;;;;;5.45;53.87;97486.26;1701227;82;21552;-70
2022/03/22 07:37:49;;;;;;;18.43;9.20;;;;;;;5.69;52.62;97480.88;1695252;85;21015;-68
2022/03/22 07:40:18;;;;;;;18.03;8.73;;;;;;;5.96;52.38;97481.28;1707935;84;21047;-73
2022/03/22 07:42:45;;;;;;;13.43;7.80;;;;;;;6.21;52.34;97477.65;1711990;83;21086;-68
2022/03/22 07:45:12;;;;;;;14.77;7.17;;;;;;;6.43;50.86;97466.92;1685234;85;21017;-66
2022/03/22 07:47:41;;;;;;;14.07;7.63;;;;;;;6.65;51.21;97466.17;1685086;85;22166;-70
2022/03/22 07:53:06;;;;;;;18.60;7.87;;;;;;;7.13;49.58;97452.14;1685091;85;21027;-72
2022/03/22 07:55:40;;;;;;;12.13;6.90;;;;;;;7.39;49.46;97455.81;1685536;85;21007;-69
2022/03/22 07:58:08;;;;;;;14.80;7.33;;;;;;;7.55;47.72;97450.48;1684798;85;21105;-70
2022/03/22 08:00:38;;;;;;;16.33;6.90;;;;;;;7.74;48.12;97447.86;1685315;85;21849;-69
2022/03/22 08:03:13;;;;;;;15.70;7.13;;;;;;;7.94;47.21;97449.61;1685123;85;21106;-70
2022/03/22 08:05:41;;;;;;;12.67;6.70;;;;;;;8.10;46.42;97442.48;1685344;85;21093;-71
2022/03/22 08:08:08;;;;;;;12.17;6.63;;;;;;;8.27;46.71;97446.78;1679735;84;21099;-70
2022/03/22 08:10:35;;;;;;;11.40;6.10;;;;;;;8.47;44.46;97445.90;1698287;83;21516;-68
2022/03/22 08:13:03;;;;;;;9.97;6.17;;;;;;;8.65;44.51;97440.09;1676630;84;21117;-68
2022/03/22 08:15:29;;;;;;;15.83;6.50;;;;;;;8.83;44.24;97439.10;1718248;83;21105;-69
2022/03/22 08:17:56;;;;;;;14.40;6.70;;;;;;;8.98;43.40;97431.91;1702226;84;21129;-68
2022/03/22 08:20:27;;;;;;;11.67;6.43;;;;;;;9.14;43.39;97427.77;1701205;84;21037;-69
2022/03/22 08:22:55;;;;;;;10.00;6.30;;;;;;;9.30;42.39;97422.34;1701409;84;22358;-69
2022/03/22 08:25:27;;;;;;;10.10;5.60;;;;;;;9.45;42.45;97422.58;1701067;84;21133;-69
2022/03/22 08:27:55;;;;;;;9.93;5.90;;;;;;;9.58;41.89;97427.59;1700995;84;21079;-68
2022/03/22 08:30:22;;;;;;;12.80;6.87;;;;;;;9.75;41.39;97422.53;1671365;86;21107;-68
2022/03/22 08:32:56;;;;;;;11.10;6.20;;;;;;;9.88;41.65;97428.89;1672775;85;21016;-70
2022/03/22 08:35:24;;;;;;;10.60;5.87;;;;;;;9.97;40.03;97421.09;1692979;85;21122;-67
2022/03/22 08:37:51;;;;;;;12.50;5.60;;;;;;;10.09;40.34;97430.48;1693187;85;21134;-71
2022/03/22 08:40:18;;;;;;;11.77;6.40;;;;;;;10.19;39.56;97424.89;1694084;85;21632;-68
2022/03/22 08:42:47;;;;;;;9.23;6.10;;;;;;;10.32;39.98;97427.27;1688723;85;21102;-67
2022/03/22 08:45:19;;;;;;;10.67;6.63;;;;;;;10.42;38.89;97423.88;1709139;84;21022;-68
2022/03/22 08:47:48;;;;;;;15.05;10.23;;;;;;;10.57;40.37;97417.44;1720306;83;21502;-71
2022/03/22 08:50:19;;;;;;;14.33;6.93;;;;;;;10.73;39.63;97421.11;1719357;83;21374;-71
2022/03/22 08:52:47;;;;;;;15.83;7.97;;;;;;;10.87;39.30;97416.42;1719201;83;21051;-72
2022/03/22 08:55:17;;;;;;;12.20;6.93;;;;;;;10.99;38.68;97412.14;1720295;83;21451;-74
2022/03/22 08:57:46;;;;;;;11.80;6.60;;;;;;;11.15;39.60;97409.63;1719217;83;21055;-73
2022/03/22 09:00:16;;;;;;;10.37;6.97;;;;;;;11.29;38.81;97407.07;1720428;83;21027;-69
2022/03/22 09:02:45;;;;;;;11.13;6.57;;;;;;;11.45;39.22;97402.36;1719412;83;21074;-69
2022/03/22 09:08:00;;;;;;;12.67;7.13;;;;;;;11.73;38.59;97398.58;1720174;83;21123;-68
2022/03/22 09:10:30;;;;;;;13.97;6.93;;;;;;;11.85;36.23;97399.97;1720769;83;21012;-68
2022/03/22 09:12:57;;;;;;;12.83;7.00;;;;;;;11.84;33.95;97396.86;1719756;83;20984;-68
2022/03/22 09:15:26;;;;;;;15.80;7.83;;;;;;;11.90;35.23;97392.98;1719957;83;21035;-68
2022/03/22 09:17:56;;;;;;;12.43;6.70;;;;;;;12.02;35.22;97390.80;1720641;83;21012;-68
2022/03/22 09:20:25;;;;;;;12.07;7.07;;;;;;;12.09;34.80;97390.84;1720823;83;21021;-68
2022/03/22 09:22:53;;;;;;;11.10;6.80;;;;;;;12.29;35.74;97392.69;1720565;83;21055;-68
2022/03/22 09:25:21;;;;;;;10.50;6.77;;;;;;;12.48;36.07;97387.02;1720733;83;21028;-74
2022/03/22 09:27:48;;;;;;;10.70;6.60;;;;;;;12.65;35.40;97386.63;1720682;83;21004;-73
2022/03/22 09:30:16;;;;;;;14.17;7.57;;;;;;;12.82;34.65;97382.66;1719169;83;21100;-69
2022/03/22 09:32:42;;;;;;;10.40;7.00;;;;;;;12.95;33.88;97371.21;1707679;84;21021;-68
2022/03/22 09:35:12;;;;;;;12.00;6.63;;;;;;;13.07;33.57;97363.69;1706922;84;21067;-68
2022/03/22 09:37:41;;;;;;;10.70;6.30;;;;;;;13.20;33.78;97366.80;1706932;84;21029;-70
2022/03/22 09:40:11;;;;;;;10.60;6.53;;;;;;;13.34;33.65;97368.58;1706501;84;21088;-69
2022/03/22 09:42:42;;;;;;;10.97;6.20;;;;;;;13.47;33.09;97362.81;1707085;84;21103;-69
2022/03/22 09:45:10;;;;;;;11.63;6.87;;;;;;;13.54;32.65;97358.81;1706808;84;21100;-69
2022/03/22 09:47:38;;;;;;;9.27;6.10;;;;;;;13.66;32.93;97359.66;1707530;84;21072;-69
2022/03/22 09:50:08;;;;;;;13.40;6.57;;;;;;;13.73;32.32;97357.44;1707347;84;21084;-68
2022/03/22 09:52:37;;;;;;;15.37;6.50;;;;;;;13.79;31.65;97359.64;1707149;84;21095;-68
2022/03/22 09:55:07;;;;;;;10.13;6.33;;;;;;;13.94;31.58;97360.04;1707253;84;21005;-67
2022/03/22 09:57:36;;;;;;;11.45;6.62;;;;;;;13.98;31.89;97355.59;1706641;84;21487;-68
2022/03/22 10:00:07;;;;;;;9.55;5.97;;;;;;;14.04;30.91;97351.60;1707052;84;21107;-68
2022/03/22 10:02:35;;;;;;;10.38;6.28;;;;;;;14.06;31.66;97342.74;1706184;84;21107;-71
2022/03/22 10:05:04;;;;;;;8.88;5.85;;;;;;;14.13;32.28;97334.28;1706962;84;21068;-67
2022/03/22 10:07:32;;;;;;;11.15;6.87;;;;;;;14.25;30.25;97334.68;1706364;84;21122;-68
2022/03/22 10:10:02;;;;;;;18.00;8.05;;;;;;;14.17;30.79;97333.39;1707965;84;21061;-66
2022/03/22 10:12:36;;;;;;;11.48;6.40;;;;;;;14.17;29.22;97325.42;1707760;84;21037;-67
2022/03/22 10:15:13;;;;;;;8.85;5.78;;;;;;;14.27;30.56;97323.16;1707633;84;21029;-66
2022/03/22 10:17:46;;;;;;;10.05;6.30;;;;;;;14.39;30.34;97319.98;1708214;84;21045;-66
2022/03/22 10:20:25;;;;;;;8.53;5.62;;;;;;;14.46;29.21;97315.08;1706777;84;21614;-67
2022/03/22 10:23:03;;;;;;;14.95;7.03;;;;;;;14.57;29.34;97316.39;1706257;84;21071;-68
2022/03/22 10:25:32;;;;;;;10.55;6.40;;;;;;;14.79;28.79;97305.14;1706444;84;21048;-67
2022/03/22 10:28:02;;;;;;;16.20;8.83;;;;;;;14.90;28.39;97305.49;1706563;84;21088;-67
2022/03/22 10:30:32;;;;;;;8.73;6.00;;;;;;;15.02;29.59;97304.52;1707281;84;21032;-67
2022/03/22 10:33:00;;;;;;;10.98;6.78;;;;;;;15.17;27.16;97295.53;1707859;84;21045;-66
2022/03/22 10:35:30;;;;;;;10.82;7.20;;;;;;;15.18;27.84;97293.74;1707660;84;21068;-66
2022/03/22 10:38:01;;;;;;;10.72;6.35;;;;;;;15.28;29.90;97302.06;1707957;84;21029;-67
2022/03/22 10:40:35;;;;;;;11.70;7.70;;;;;;;15.28;27.55;97298.95;1708047;84;21033;-67
2022/03/22 10:43:06;;;;;;;11.97;7.55;;;;;;;15.24;26.80;97288.35;1707794;84;21068;-66
2022/03/22 10:45:56;;;;;;;14.28;8.55;;;;;;;15.18;27.26;97295.07;1707730;84;21575;-68
2022/03/22 10:48:28;;;;;;;32.13;18.00;;;;;;;15.21;27.95;97289.27;1707221;84;21041;-67
2022/03/22 10:51:01;;;;;;;34.58;19.30;;;;;;;15.32;27.64;97285.16;1707534;84;21044;-66
2022/03/22 10:53:27;;;;;;;25.95;13.48;;;;;;;15.52;27.48;97284.53;1707648;84;21037;-66
2022/03/22 10:55:57;;;;;;;19.27;10.60;;;;;;;15.62;26.71;97272.42;1707917;84;21025;-67
2022/03/22 10:58:27;;;;;;;11.20;7.20;;;;;;;15.74;26.85;97270.98;1707833;84;21048;-66
2022/03/22 11:00:56;;;;;;;10.28;6.62;;;;;;;15.91;25.82;97265.47;1707923;84;21059;-67
2022/03/22 11:03:25;;;;;;;11.25;6.72;;;;;;;16.13;26.53;97266.94;1707881;84;21521;-67
2022/03/22 11:05:55;;;;;;;10.72;6.03;;;;;;;16.40;25.25;97255.44;1707957;84;21036;-67
2022/03/22 11:08:25;;;;;;;15.60;8.93;;;;;;;16.73;24.88;97261.15;1707941;84;20992;-67
2022/03/22 11:10:54;;;;;;;12.25;7.92;;;;;;;17.11;24.55;97252.98;1707936;84;21515;-67
2022/03/22 11:13:24;;;;;;;11.63;7.20;;;;;;;17.63;24.22;97248.00;1707963;84;21029;-67
2022/03/22 11:15:52;;;;;;;16.40;11.12;;;;;;;17.91;25.50;97240.33;1707942;84;21467;-67
2022/03/22 11:18:21;;;;;;;13.35;9.15;;;;;;;18.48;21.79;97233.72;1707953;84;21053;-67
2022/03/22 11:21:00;;;;;;;13.62;8.43;;;;;;;18.48;21.79;97233.72;1707927;84;21070;-67
2022/03/22 11:23:31;;;;;;;12.70;8.63;;;;;;;18.94;21.71;97223.25;1707898;84;21033;-67
2022/03/22 11:26:10;;;;;;;12.98;8.60;;;;;;;19.36;21.15;97218.56;1707912;84;21047;-68
2022/03/22 11:28:38;;;;;;;14.70;9.13;;;;;;;19.85;20.66;97213.63;1707774;84;21013;-67
2022/03/22 11:31:09;;;;;;;13.18;8.33;;;;;;;20.17;20.23;97206.44;1695259;85;21547;-67
2022/03/22 11:36:29;;;;;;;10.65;6.87;;;;;;;20.49;18.65;97196.05;1695656;85;21065;-68
2022/03/22 11:38:56;;;;;;;7.67;6.08;;;;;;;20.67;19.70;97208.88;1694559;85;21013;-68
2022/03/22 11:44:36;;;;;;;9.40;7.50;;;;;;;21.51;18.63;97190.80;1695315;85;21025;-69
2022/03/22 11:47:11;;;;;;;13.38;9.20;;;;;;;21.97;19.21;97189.06;1695358;84;21028;-68
2022/03/22 11:49:59;;;;;;;16.27;11.10;;;;;;;22.39;18.17;97188.36;1695552;85;21056;-69
2022/03/22 11:52:39;;;;;;;10.53;7.10;;;;;;;22.38;17.23;97179.89;1695347;85;21387;-68
2022/03/22 11:55:15;;;;;;;9.55;6.75;;;;;;;22.55;17.75;97181.40;1695146;85;21196;-68
2022/03/22 11:57:53;;;;;;;9.15;5.87;;;;;;;22.87;17.78;97176.03;1695452;85;21100;-68
2022/03/22 12:00:24;;;;;;;7.15;5.20;;;;;;;23.12;17.90;97176.36;1695175;84;21495;-68
2022/03/22 12:02:55;;;;;;;7.35;5.30;;;;;;;23.52;17.17;97176.82;1693991;84;21072;-68
2022/03/22 12:05:24;;;;;;;6.65;5.28;;;;;;;23.67;17.08;97166.30;1695350;85;21048;-68